Time;durP1;ratioP1;P1;durP2;ratioP2;P2;SDS_P1;SDS_P2;PMS_P1;PMS_P2;Temp;Humidity;BMP_temperature;BMP_pressure;BME280_temperature;BME280_humidity;BME280_pressure;Samples;Min_cycle;Max_cycle;Signal;HPM_P1;HPM_P2
2021/05/17 00:02:27;;;;;;;5.90;2.60;;;9.50;99.90;;;;;;5076671;28;20449;-71
2021/05/17 00:04:55;;;;;;;4.60;2.83;;;9.40;99.90;;;;;;5076424;28;20444;-71
2021/05/17 00:07:23;;;;;;;7.83;2.77;;;9.30;99.90;;;;;;5076512;28;20449;-72
2021/05/17 00:09:50;;;;;;;4.10;2.47;;;9.20;99.90;;;;;;5076270;28;20547;-72
2021/05/17 00:12:18;;;;;;;3.43;1.90;;;9.20;99.90;;;;;;5076258;28;20542;-71
2021/05/17 00:14:45;;;;;;;4.47;2.00;;;9.00;99.90;;;;;;5076288;28;20585;-71
2021/05/17 00:17:13;;;;;;;2.40;1.60;;;9.10;99.90;;;;;;5075979;28;20452;-72
2021/05/17 00:19:41;;;;;;;4.37;2.17;;;9.00;99.90;;;;;;5076060;28;20461;-72
2021/05/17 00:22:09;;;;;;;3.33;1.80;;;9.00;99.90;;;;;;5076416;28;20794;-71
2021/05/17 00:24:37;;;;;;;6.70;2.27;;;9.00;99.90;;;;;;5076452;28;20445;-71
2021/05/17 00:27:06;;;;;;;3.50;2.03;;;9.00;99.90;;;;;;5076048;28;20457;-71
2021/05/17 00:29:38;;;;;;;5.10;2.73;;;9.00;99.90;;;;;;5076467;28;20459;-71
2021/05/17 00:32:13;;;;;;;4.00;1.23;;;9.00;99.90;;;;;;5077251;28;20472;-72
2021/05/17 00:34:43;;;;;;;3.43;1.73;;;9.00;99.90;;;;;;5076230;28;20519;-72
2021/05/17 00:37:14;;;;;;;2.50;1.63;;;8.90;99.90;;;;;;5078055;28;21022;-72
2021/05/17 00:39:45;;;;;;;5.00;2.03;;;8.90;99.90;;;;;;5076599;28;20484;-72
2021/05/17 00:42:14;;;;;;;3.07;2.00;;;8.90;99.90;;;;;;5076375;28;20467;-73
2021/05/17 00:44:42;;;;;;;2.57;1.60;;;8.90;99.90;;;;;;5075685;28;20743;-72
2021/05/17 00:47:12;;;;;;;3.30;2.30;;;8.90;99.90;;;;;;5075986;28;20457;-72
2021/05/17 00:49:39;;;;;;;6.40;1.60;;;8.90;99.90;;;;;;5075382;28;20437;-72
2021/05/17 00:52:08;;;;;;;7.77;2.10;;;8.90;99.90;;;;;;5076572;28;20542;-72
2021/05/17 00:54:36;;;;;;;4.53;1.90;;;9.00;99.90;;;;;;5075955;28;20548;-72
2021/05/17 00:57:05;;;;;;;2.47;1.70;;;9.10;99.90;;;;;;5076278;28;20467;-72
2021/05/17 00:59:34;;;;;;;7.03;2.10;;;9.00;99.90;;;;;;5076184;28;20881;-72
2021/05/17 01:02:01;;;;;;;3.33;1.97;;;9.00;99.90;;;;;;5076244;28;20564;-72
2021/05/17 01:04:29;;;;;;;6.50;1.97;;;9.00;99.90;;;;;;5077233;28;20556;-71
2021/05/17 01:06:58;;;;;;;4.27;2.10;;;9.10;99.90;;;;;;5079517;28;20555;-72
2021/05/17 01:09:27;;;;;;;2.90;2.30;;;9.20;99.90;;;;;;5079772;28;20503;-71
2021/05/17 01:11:58;;;;;;;12.30;3.80;;;9.10;99.90;;;;;;5079484;28;20460;-73
2021/05/17 01:14:27;;;;;;;4.17;2.20;;;9.00;99.90;;;;;;5079394;28;20480;-73
2021/05/17 01:16:55;;;;;;;4.40;3.43;;;9.00;99.90;;;;;;5079410;28;20460;-72
2021/05/17 01:19:33;;;;;;;3.40;1.80;;;8.90;99.90;;;;;;5079494;28;20515;-73
2021/05/17 01:22:09;;;;;;;5.70;3.23;;;8.90;99.90;;;;;;5079019;28;20517;-72
2021/05/17 01:24:39;;;;;;;5.70;2.73;;;9.00;99.90;;;;;;5079474;28;20456;-72
2021/05/17 01:27:08;;;;;;;5.77;2.43;;;9.00;99.90;;;;;;5079199;28;20472;-72
2021/05/17 01:29:37;;;;;;;3.87;2.83;;;8.90;99.90;;;;;;5079174;28;20488;-72
2021/05/17 01:32:07;;;;;;;3.03;2.00;;;8.80;99.90;;;;;;5079370;28;20464;-72
2021/05/17 01:34:38;;;;;;;5.30;2.00;;;8.90;99.90;;;;;;5078863;28;20543;-72
2021/05/17 01:37:09;;;;;;;5.03;2.53;;;9.00;99.90;;;;;;5079262;28;20460;-72
2021/05/17 01:39:38;;;;;;;2.50;1.43;;;9.00;99.90;;;;;;5079164;28;20449;-72
2021/05/17 01:42:07;;;;;;;5.17;2.40;;;9.00;99.90;;;;;;5079397;28;20471;-72
2021/05/17 01:44:38;;;;;;;3.00;2.40;;;9.00;99.90;;;;;;5078523;28;20458;-72
2021/05/17 01:47:07;;;;;;;3.13;2.00;;;8.90;99.90;;;;;;5078962;28;20461;-72
2021/05/17 01:49:39;;;;;;;5.83;3.60;;;9.10;99.90;;;;;;5079706;28;20449;-72
2021/05/17 01:52:09;;;;;;;6.30;2.00;;;9.10;99.90;;;;;;5078712;28;20449;-72
2021/05/17 01:54:44;;;;;;;3.67;2.10;;;9.00;99.90;;;;;;5079623;28;20495;-72
2021/05/17 01:57:12;;;;;;;3.93;2.63;;;9.00;99.90;;;;;;5079133;28;20466;-72
2021/05/17 01:59:41;;;;;;;2.87;1.87;;;9.00;99.90;;;;;;5078715;28;20535;-72
2021/05/17 02:02:10;;;;;;;3.70;2.20;;;8.80;99.90;;;;;;5079338;28;20485;-72
2021/05/17 02:04:40;;;;;;;4.03;2.70;;;8.80;99.90;;;;;;5078597;28;20445;-71
2021/05/17 02:07:09;;;;;;;3.83;2.40;;;8.80;99.90;;;;;;5078071;28;20547;-71
2021/05/17 02:09:38;;;;;;;6.97;2.57;;;9.00;99.90;;;;;;5077855;28;20543;-72
2021/05/17 02:12:09;;;;;;;4.13;3.10;;;8.80;99.90;;;;;;5077973;28;20464;-72
2021/05/17 02:14:39;;;;;;;4.00;2.20;;;8.90;99.90;;;;;;5078254;28;20481;-71
2021/05/17 02:17:09;;;;;;;3.80;2.57;;;8.90;99.90;;;;;;5077625;28;20551;-72
2021/05/17 02:19:39;;;;;;;3.60;2.53;;;8.80;99.90;;;;;;5078039;28;20453;-72
2021/05/17 02:22:09;;;;;;;3.67;2.30;;;8.90;99.90;;;;;;5078438;28;20861;-71
2021/05/17 02:24:40;;;;;;;3.60;2.17;;;8.80;99.90;;;;;;5078478;28;20450;-71
2021/05/17 02:27:09;;;;;;;3.67;2.60;;;8.90;99.90;;;;;;5077911;28;20457;-72
2021/05/17 02:29:37;;;;;;;4.07;2.70;;;8.90;99.90;;;;;;5077408;28;20461;-72
2021/05/17 02:32:05;;;;;;;4.83;2.77;;;8.80;99.90;;;;;;5078084;28;21008;-71
2021/05/17 02:34:33;;;;;;;4.77;3.10;;;8.90;99.90;;;;;;5078038;28;20496;-72
2021/05/17 02:37:01;;;;;;;5.37;2.60;;;9.00;99.90;;;;;;5077621;28;20460;-71
2021/05/17 02:39:28;;;;;;;3.30;2.50;;;8.80;99.90;;;;;;5077657;28;20453;-71
2021/05/17 02:41:56;;;;;;;3.27;2.60;;;8.90;99.90;;;;;;5077367;28;20521;-71
2021/05/17 02:44:25;;;;;;;4.67;2.50;;;9.00;99.90;;;;;;5077401;28;20771;-72
2021/05/17 02:46:55;;;;;;;6.60;2.80;;;9.00;99.90;;;;;;5077469;28;20764;-72
2021/05/17 02:49:24;;;;;;;5.53;2.83;;;9.00;99.90;;;;;;5077560;28;20530;-72
2021/05/17 02:51:51;;;;;;;6.20;3.57;;;8.80;99.90;;;;;;5077608;28;20468;-71
2021/05/17 02:54:30;;;;;;;4.47;3.77;;;8.80;99.90;;;;;;5077154;28;20796;-71
2021/05/17 02:57:08;;;;;;;5.53;3.40;;;8.70;99.90;;;;;;5077841;28;20453;-72
2021/05/17 03:00:15;;;;;;;4.23;3.23;;;8.90;99.90;;;;;;5077001;28;20452;-72
2021/05/17 03:03:04;;;;;;;5.17;3.87;;;8.80;99.90;;;;;;5077479;28;20467;-72
2021/05/17 03:05:34;;;;;;;5.77;3.73;;;8.90;99.90;;;;;;5077495;28;20448;-72
2021/05/17 03:08:03;;;;;;;7.40;4.13;;;8.80;99.90;;;;;;5077226;28;20918;-72
2021/05/17 03:10:33;;;;;;;7.07;4.17;;;8.80;99.90;;;;;;5077448;28;20445;-72
2021/05/17 03:13:09;;;;;;;5.27;3.87;;;8.70;99.90;;;;;;5076324;28;20464;-72
2021/05/17 03:15:38;;;;;;;4.90;3.27;;;8.60;99.90;;;;;;5076884;28;20485;-73
2021/05/17 03:18:05;;;;;;;7.27;4.47;;;8.70;99.90;;;;;;5076877;28;20453;-72
2021/05/17 03:20:33;;;;;;;6.17;4.57;;;8.70;99.90;;;;;;5076830;28;20449;-72
2021/05/17 03:23:01;;;;;;;5.37;3.40;;;8.70;99.90;;;;;;5076219;28;20510;-72
2021/05/17 03:25:32;;;;;;;7.73;4.10;;;8.70;99.90;;;;;;5076550;28;20484;-72
2021/05/17 03:27:59;;;;;;;11.83;4.23;;;8.60;99.90;;;;;;5075569;28;20536;-72
2021/05/17 03:30:27;;;;;;;6.03;4.27;;;8.60;99.90;;;;;;5076720;28;20801;-72
2021/05/17 03:32:55;;;;;;;5.60;3.67;;;8.60;99.90;;;;;;5076047;28;20464;-72
2021/05/17 03:35:23;;;;;;;5.83;3.40;;;8.60;99.90;;;;;;5076347;28;20488;-72
2021/05/17 03:37:50;;;;;;;5.97;4.03;;;8.50;99.90;;;;;;5076833;28;20533;-72
2021/05/17 03:40:19;;;;;;;12.27;5.03;;;8.50;99.90;;;;;;5076592;28;20534;-72
2021/05/17 03:42:47;;;;;;;8.80;4.20;;;8.50;99.90;;;;;;5076754;28;20543;-72
2021/05/17 03:45:15;;;;;;;5.27;4.23;;;8.50;99.90;;;;;;5077018;28;20456;-73
2021/05/17 03:47:44;;;;;;;8.90;4.00;;;8.50;99.90;;;;;;5076595;28;20441;-72
2021/05/17 03:50:13;;;;;;;10.70;4.07;;;8.60;99.90;;;;;;5078462;28;20526;-72
2021/05/17 03:52:42;;;;;;;5.77;3.80;;;8.50;99.90;;;;;;5076619;28;20483;-72
2021/05/17 03:55:10;;;;;;;8.50;4.90;;;8.40;99.90;;;;;;5076596;28;20908;-72
2021/05/17 03:57:39;;;;;;;7.23;3.67;;;8.50;99.90;;;;;;5076773;28;20852;-72
2021/05/17 04:00:09;;;;;;;7.60;3.90;;;8.40;99.90;;;;;;5076601;28;20488;-72
2021/05/17 04:02:40;;;;;;;8.80;4.30;;;8.50;99.90;;;;;;5076134;28;20459;-73
2021/05/17 04:05:21;;;;;;;6.20;4.30;;;8.40;99.90;;;;;;5076212;28;20451;-72
2021/05/17 04:13:24;;;;;;;5.10;4.17;;;8.30;99.90;;;;;;5075617;28;20432;-71
2021/05/17 04:15:53;;;;;;;6.90;4.47;;;8.40;99.90;;;;;;5075896;28;20758;-71
2021/05/17 04:18:21;;;;;;;6.47;4.37;;;8.30;99.90;;;;;;5076187;28;20456;-71
2021/05/17 04:20:49;;;;;;;6.90;4.53;;;8.30;99.90;;;;;;5076176;28;20464;-72
2021/05/17 04:23:20;;;;;;;7.57;4.43;;;8.30;99.90;;;;;;5075336;28;20480;-71
2021/05/17 04:25:47;;;;;;;6.07;4.50;;;8.30;99.90;;;;;;5076258;28;20448;-71
2021/05/17 04:28:15;;;;;;;10.37;7.60;;;8.40;99.90;;;;;;5076203;28;20711;-72
2021/05/17 04:30:42;;;;;;;7.47;5.00;;;8.50;99.90;;;;;;5075840;28;20539;-71
2021/05/17 04:33:09;;;;;;;6.03;4.50;;;8.50;99.90;;;;;;5076318;28;20708;-71
2021/05/17 04:35:37;;;;;;;5.83;4.37;;;8.50;99.90;;;;;;5075904;28;20528;-71
2021/05/17 04:38:04;;;;;;;5.53;4.53;;;8.60;99.90;;;;;;5076295;28;20818;-72
2021/05/17 04:40:32;;;;;;;9.00;3.83;;;8.60;99.90;;;;;;5078319;28;20445;-71
2021/05/17 04:42:59;;;;;;;5.00;4.30;;;8.80;99.90;;;;;;5078928;28;20487;-71
2021/05/17 04:45:27;;;;;;;6.07;4.60;;;8.90;99.90;;;;;;5079126;28;20510;-71
2021/05/17 04:47:55;;;;;;;7.30;4.70;;;8.90;99.90;;;;;;5079200;28;20448;-71
2021/05/17 04:50:23;;;;;;;6.63;4.97;;;9.20;99.90;;;;;;5079719;28;20455;-71
2021/05/17 04:52:50;;;;;;;6.37;4.00;;;10.70;99.90;;;;;;5079260;28;20500;-71
2021/05/17 04:55:18;;;;;;;4.90;3.67;;;11.20;99.90;;;;;;5078839;28;20520;-71
2021/05/17 04:57:46;;;;;;;4.57;2.80;;;12.10;99.90;;;;;;5078602;28;20865;-71
2021/05/17 05:00:14;;;;;;;5.13;2.90;;;12.20;99.90;;;;;;5078823;28;20463;-72
2021/05/17 05:02:42;;;;;;;5.63;2.83;;;11.50;99.90;;;;;;5078728;28;20453;-71
2021/05/17 05:05:10;;;;;;;3.30;2.63;;;10.30;99.90;;;;;;5078522;28;20465;-71
2021/05/17 05:07:37;;;;;;;4.40;2.60;;;9.80;99.90;;;;;;5077833;28;20548;-71
2021/05/17 05:10:05;;;;;;;4.10;2.70;;;9.80;99.90;;;;;;5078460;28;20543;-71
2021/05/17 05:12:32;;;;;;;4.30;3.00;;;9.70;99.90;;;;;;5079065;28;20456;-71
2021/05/17 05:15:01;;;;;;;5.70;3.40;;;9.80;99.90;;;;;;5078219;28;20575;-71
2021/05/17 05:17:28;;;;;;;7.80;3.23;;;9.80;99.90;;;;;;5077216;28;20544;-71
2021/05/17 05:19:55;;;;;;;5.83;3.27;;;10.00;99.90;;;;;;5078515;28;21026;-71
2021/05/17 05:22:24;;;;;;;5.00;3.30;;;10.10;99.90;;;;;;5077340;28;20569;-71
2021/05/17 05:24:53;;;;;;;3.23;2.70;;;10.40;99.90;;;;;;5077863;28;20456;-71
2021/05/17 05:27:24;;;;;;;4.20;2.97;;;10.40;99.90;;;;;;5077330;28;20463;-71
2021/05/17 05:30:00;;;;;;;5.30;4.23;;;10.50;99.90;;;;;;5076604;28;20805;-71
2021/05/17 05:32:31;;;;;;;4.50;2.93;;;10.10;99.90;;;;;;5077158;28;20452;-71
2021/05/17 05:34:58;;;;;;;6.23;2.87;;;10.00;99.90;;;;;;5076863;28;20542;-71
2021/05/17 05:37:25;;;;;;;5.13;3.57;;;10.40;99.90;;;;;;5077475;28;20484;-71
2021/05/17 05:39:53;;;;;;;3.73;2.67;;;10.50;99.90;;;;;;5077168;28;20552;-71
2021/05/17 05:42:20;;;;;;;5.20;3.50;;;10.10;99.90;;;;;;5075965;28;20448;-71
2021/05/17 05:44:48;;;;;;;5.60;3.83;;;11.20;99.90;;;;;;5075514;28;20825;-71
2021/05/17 05:47:18;;;;;;;5.57;4.27;;;11.20;99.90;;;;;;5076363;28;20461;-71
2021/05/17 05:49:49;;;;;;;3.13;2.43;;;11.40;99.90;;;;;;5076783;28;20877;-71
2021/05/17 05:52:17;;;;;;;5.13;3.20;;;10.80;99.90;;;;;;5075252;28;20914;-71
2021/05/17 05:54:45;;;;;;;6.60;5.03;;;10.40;99.90;;;;;;5076335;28;20489;-71
2021/05/17 05:57:40;;;;;;;4.47;3.27;;;10.40;99.90;;;;;;5075694;28;20484;-71
2021/05/17 06:00:09;;;;;;;6.37;3.10;;;10.80;99.90;;;;;;5074987;28;20477;-71
2021/05/17 06:02:37;;;;;;;4.23;3.23;;;10.90;99.90;;;;;;5075352;28;20469;-72
2021/05/17 06:05:09;;;;;;;6.20;3.20;;;10.60;99.90;;;;;;5058809;28;20459;-71
2021/05/17 06:07:37;;;;;;;4.53;3.47;;;10.50;99.90;;;;;;5076475;28;20485;-71
2021/05/17 06:10:06;;;;;;;4.87;3.37;;;10.40;99.90;;;;;;5076804;28;20494;-73
2021/05/17 06:12:37;;;;;;;5.03;3.23;;;10.60;99.90;;;;;;5075366;28;20869;-72
2021/05/17 06:15:06;;;;;;;6.80;3.37;;;10.50;99.90;;;;;;5096967;28;20488;-72
2021/05/17 06:17:34;;;;;;;5.80;3.93;;;10.60;99.90;;;;;;5094916;28;20487;-71
2021/05/17 06:20:02;;;;;;;7.13;4.10;;;10.50;99.90;;;;;;5096650;28;20520;-71
2021/05/17 06:22:31;;;;;;;6.50;3.43;;;10.60;99.90;;;;;;5095779;28;20488;-72
2021/05/17 06:25:03;;;;;;;5.27;3.63;;;10.50;99.90;;;;;;5095793;28;20693;-72
2021/05/17 06:27:40;;;;;;;10.20;3.70;;;10.50;99.90;;;;;;5095949;28;20491;-71
2021/05/17 06:30:10;;;;;;;5.50;3.47;;;10.50;99.90;;;;;;5095384;28;20459;-71
2021/05/17 06:32:42;;;;;;;6.50;3.00;;;10.60;99.90;;;;;;5095783;28;20466;-71
2021/05/17 06:35:12;;;;;;;5.87;3.80;;;10.50;99.90;;;;;;5096093;28;20484;-72
2021/05/17 06:37:43;;;;;;;8.43;3.53;;;10.50;99.90;;;;;;5096034;28;21024;-72
2021/05/17 06:40:13;;;;;;;5.30;3.80;;;10.60;99.90;;;;;;5095814;28;20484;-72
2021/05/17 06:42:41;;;;;;;5.17;3.07;;;10.60;99.90;;;;;;5095144;28;20452;-72
2021/05/17 06:45:10;;;;;;;6.50;3.90;;;10.60;99.90;;;;;;5096566;28;20776;-71
2021/05/17 06:47:40;;;;;;;7.40;4.60;;;10.80;99.90;;;;;;5095778;28;20740;-71
2021/05/17 06:50:09;;;;;;;5.53;3.07;;;10.90;99.90;;;;;;5074878;28;20468;-71
2021/05/17 06:52:37;;;;;;;5.73;4.00;;;10.90;99.90;;;;;;5075435;28;20453;-73
2021/05/17 06:55:13;;;;;;;6.03;3.70;;;10.90;99.90;;;;;;5075853;28;20516;-72
2021/05/17 06:57:51;;;;;;;4.50;3.60;;;11.20;99.90;;;;;;5075597;28;20452;-72
2021/05/17 07:00:27;;;;;;;7.43;4.20;;;11.40;99.90;;;;;;5075498;28;20753;-72
2021/05/17 07:02:58;;;;;;;6.17;3.40;;;11.80;99.90;;;;;;5074847;28;20498;-74
2021/05/17 07:05:33;;;;;;;5.37;4.00;;;12.00;99.90;;;;;;5076274;28;20714;-72
2021/05/17 07:13:28;;;;;;;5.27;3.50;;;12.00;99.90;;;;;;5075486;28;20436;-72
2021/05/17 07:15:56;;;;;;;6.67;5.40;;;12.00;99.90;;;;;;5075066;28;20555;-72
2021/05/17 07:18:24;;;;;;;4.67;3.40;;;12.10;99.90;;;;;;5075595;28;20448;-74
2021/05/17 07:27:02;;;;;;;10.20;4.07;;;12.00;99.90;;;;;;5075616;28;20592;-73
2021/05/17 07:29:32;;;;;;;6.40;5.07;;;12.50;99.90;;;;;;5074176;28;20540;-73
2021/05/17 07:32:05;;;;;;;10.43;4.33;;;12.20;99.90;;;;;;5073343;28;20718;-73
2021/05/17 07:34:35;;;;;;;8.63;4.93;;;12.30;99.90;;;;;;5073780;28;20481;-73
2021/05/17 07:37:03;;;;;;;5.50;3.40;;;12.60;99.90;;;;;;5074186;28;20515;-73
2021/05/17 07:39:32;;;;;;;6.83;4.23;;;13.00;99.90;;;;;;5073492;28;20469;-72
2021/05/17 07:42:02;;;;;;;6.43;4.17;;;12.80;99.90;;;;;;5074620;28;20769;-73
2021/05/17 07:44:31;;;;;;;5.50;3.80;;;13.20;99.90;;;;;;5075198;28;20532;-72
2021/05/17 07:47:01;;;;;;;8.30;3.93;;;13.20;99.90;;;;;;5075621;28;20776;-73
2021/05/17 07:49:37;;;;;;;6.93;3.80;;;13.10;99.90;;;;;;5075462;28;21074;-73
2021/05/17 07:52:14;;;;;;;5.47;3.30;;;13.60;99.90;;;;;;5074944;28;20456;-73
2021/05/17 07:54:43;;;;;;;4.37;3.40;;;13.20;99.90;;;;;;5075013;28;20477;-73
2021/05/17 07:57:12;;;;;;;5.93;3.77;;;13.00;99.90;;;;;;5075178;28;20888;-72
2021/05/17 07:59:48;;;;;;;6.70;3.63;;;13.00;99.90;;;;;;5074992;28;20495;-72
2021/05/17 08:02:21;;;;;;;4.97;3.90;;;13.30;99.90;;;;;;5077677;28;20880;-72
2021/05/17 08:05:00;;;;;;;7.47;4.20;;;13.30;99.90;;;;;;5080666;28;20517;-73
2021/05/17 08:07:41;;;;;;;5.17;4.10;;;13.40;99.90;;;;;;5078289;28;20451;-72
2021/05/17 08:10:16;;;;;;;5.37;3.50;;;13.40;99.90;;;;;;5082333;28;20520;-72
2021/05/17 08:12:47;;;;;;;7.50;3.93;;;13.70;99.90;;;;;;5085753;28;20474;-73
2021/05/17 08:15:17;;;;;;;6.53;3.50;;;13.90;99.90;;;;;;5087059;28;20509;-73
2021/05/17 08:17:49;;;;;;;4.13;3.73;;;14.00;99.90;;;;;;5079804;28;20517;-73
2021/05/17 08:20:16;;;;;;;7.10;3.90;;;14.70;99.90;;;;;;5082031;28;20476;-73
2021/05/17 08:22:43;;;;;;;4.97;3.43;;;14.70;99.90;;;;;;5083335;28;20463;-73
2021/05/17 08:25:13;;;;;;;5.97;3.23;;;14.50;99.90;;;;;;5095069;28;20448;-72
2021/05/17 08:27:40;;;;;;;3.13;2.40;;;14.60;99.90;;;;;;5095857;28;20561;-72
2021/05/17 08:30:20;;;;;;;5.60;2.83;;;14.40;99.90;;;;;;5080531;28;20853;-73
2021/05/17 08:32:55;;;;;;;4.13;2.70;;;14.60;99.90;;;;;;5075509;28;20463;-72
2021/05/17 08:36:14;;;;;;;5.40;2.40;;;14.50;99.90;;;;;;5074886;28;20484;-73
2021/05/17 08:38:43;;;;;;;6.03;3.00;;;14.00;99.90;;;;;;5072520;28;20483;-72
2021/05/17 08:41:12;;;;;;;5.80;2.60;;;14.00;99.90;;;;;;5074974;28;20976;-73
2021/05/17 08:43:40;;;;;;;7.17;2.30;;;14.00;99.90;;;;;;5075035;28;20546;-72
2021/05/17 08:46:13;;;;;;;6.27;4.83;;;14.00;99.90;;;;;;5074217;28;20468;-72
2021/05/17 08:48:48;;;;;;;4.80;2.00;;;14.20;99.90;;;;;;5074754;28;20573;-71
2021/05/17 08:51:18;;;;;;;7.33;2.13;;;14.10;99.90;;;;;;5074928;28;20457;-71
2021/05/17 08:53:48;;;;;;;5.73;2.60;;;14.00;99.90;;;;;;5074091;28;20908;-71
2021/05/17 08:56:23;;;;;;;13.73;4.17;;;14.00;99.90;;;;;;5073526;28;20495;-71
2021/05/17 08:59:01;;;;;;;4.83;1.50;;;13.90;99.90;;;;;;5073843;28;20470;-72
2021/05/17 09:01:38;;;;;;;4.30;1.70;;;13.80;99.90;;;;;;5083555;28;20455;-72
2021/05/17 09:04:18;;;;;;;6.47;1.93;;;13.70;99.90;;;;;;5094244;28;20451;-72
2021/05/17 09:06:49;;;;;;;5.43;2.10;;;13.90;99.90;;;;;;5083465;28;20476;-72
2021/05/17 09:09:32;;;;;;;11.60;2.20;;;13.90;99.90;;;;;;5075193;28;20476;-75
2021/05/17 09:12:03;;;;;;;2.90;1.90;;;14.00;99.90;;;;;;5088886;28;20463;-73
2021/05/17 09:14:34;;;;;;;9.70;1.80;;;14.20;99.90;;;;;;5091552;28;20464;-72
2021/05/17 09:17:08;;;;;;;5.20;2.00;;;14.70;99.90;;;;;;5094729;28;20528;-72
2021/05/17 09:19:41;;;;;;;5.53;1.60;;;14.80;99.90;;;;;;5092291;28;20448;-72
2021/05/17 09:22:16;;;;;;;7.57;1.87;;;15.30;99.90;;;;;;5076361;28;20499;-72
2021/05/17 09:25:15;;;;;;;4.80;1.60;;;15.40;99.90;;;;;;5073763;28;20443;-72
2021/05/17 09:27:47;;;;;;;6.90;1.87;;;15.80;99.90;;;;;;5077534;28;20457;-73
2021/05/17 09:30:15;;;;;;;5.53;1.53;;;16.00;99.90;;;;;;5078057;28;20445;-72
2021/05/17 09:32:49;;;;;;;10.20;3.73;;;16.00;99.90;;;;;;5087641;28;20451;-72
2021/05/17 09:35:19;;;;;;;5.50;1.50;;;15.60;99.90;;;;;;5087916;28;20482;-72
2021/05/17 09:37:50;;;;;;;4.40;1.73;;;16.30;99.90;;;;;;5077663;28;20574;-72
2021/05/17 09:40:24;;;;;;;4.60;1.60;;;16.40;99.90;;;;;;5078078;28;20883;-72
2021/05/17 09:43:11;;;;;;;3.97;1.43;;;15.90;99.90;;;;;;5079130;28;20835;-72
2021/05/17 09:45:46;;;;;;;3.90;1.10;;;15.50;99.90;;;;;;5089581;28;20532;-72
2021/05/17 09:51:16;;;;;;;3.60;1.17;;;15.20;99.90;;;;;;5085366;28;20970;-73
2021/05/17 09:53:52;;;;;;;3.93;1.40;;;15.10;99.90;;;;;;5092176;28;20453;-72
2021/05/17 09:56:27;;;;;;;4.90;2.03;;;15.00;99.90;;;;;;5094803;28;20540;-71
2021/05/17 09:59:06;;;;;;;4.70;1.50;;;15.10;99.90;;;;;;5085841;28;20518;-72
2021/05/17 10:01:40;;;;;;;4.57;1.23;;;14.90;99.90;;;;;;5083535;28;20503;-72
2021/05/17 10:04:13;;;;;;;2.97;1.10;;;15.10;99.90;;;;;;5098050;28;20467;-74
2021/05/17 10:06:57;;;;;;;4.00;1.30;;;15.10;99.90;;;;;;5081974;28;20502;-74
2021/05/17 10:09:33;;;;;;;3.50;1.30;;;15.00;99.90;;;;;;5078179;28;20463;-73
2021/05/17 10:12:06;;;;;;;4.07;1.73;;;14.90;99.90;;;;;;5077862;28;20484;-73
2021/05/17 10:14:41;;;;;;;3.03;1.33;;;14.90;99.90;;;;;;5083027;28;20491;-72
2021/05/17 10:17:10;;;;;;;3.93;1.60;;;14.70;99.90;;;;;;5078412;28;20504;-72
2021/05/17 10:19:43;;;;;;;2.00;0.90;;;14.70;99.90;;;;;;5077202;28;20726;-72
2021/05/17 10:22:13;;;;;;;5.80;1.23;;;14.00;99.90;;;;;;5079369;28;20449;-72
2021/05/17 10:24:41;;;;;;;6.30;1.33;;;13.40;99.90;;;;;;5078228;28;20457;-71
2021/05/17 10:27:11;;;;;;;2.30;1.00;;;12.10;99.90;;;;;;5076595;28;20461;-71
2021/05/17 10:29:45;;;;;;;4.90;1.40;;;11.60;99.90;;;;;;5076785;28;20456;-72
2021/05/17 10:32:43;;;;;;;4.40;1.00;;;11.60;99.90;;;;;;5077060;28;20794;-72
2021/05/17 10:35:22;;;;;;;2.03;1.20;;;11.40;99.90;;;;;;5005918;28;20489;-72
2021/05/17 10:37:50;;;;;;;2.30;1.30;;;11.20;99.90;;;;;;5086723;28;20451;-72
2021/05/17 10:40:36;;;;;;;2.23;1.37;;;11.30;99.90;;;;;;5094987;28;20456;-74
2021/05/17 10:43:13;;;;;;;2.17;1.30;;;11.00;99.90;;;;;;5097209;28;20491;-73
2021/05/17 10:48:31;;;;;;;2.20;1.43;;;11.60;99.90;;;;;;5086705;28;20428;-74
2021/05/17 10:51:18;;;;;;;3.73;1.57;;;12.30;99.90;;;;;;5076714;28;20449;-73
2021/05/17 10:53:57;;;;;;;1.83;1.00;;;12.60;99.90;;;;;;5076873;28;20460;-74
2021/05/17 10:56:51;;;;;;;2.80;1.63;;;13.00;99.90;;;;;;5075760;28;20490;-75
2021/05/17 11:02:44;;;;;;;2.93;1.03;;;13.90;99.90;;;;;;5076352;28;20432;-72
2021/05/17 11:05:14;;;;;;;3.20;0.90;;;13.70;99.90;;;;;;5077869;28;20535;-72
2021/05/17 11:07:52;;;;;;;1.60;0.90;;;13.20;99.90;;;;;;5075988;28;20457;-72
2021/05/17 11:10:25;;;;;;;1.80;0.97;;;13.30;99.90;;;;;;5078044;28;20460;-73
2021/05/17 11:13:07;;;;;;;1.70;0.83;;;13.40;99.90;;;;;;5077214;28;20544;-72
2021/05/17 11:16:06;;;;;;;1.90;1.30;;;13.60;99.90;;;;;;5075088;28;20488;-72
2021/05/17 11:18:43;;;;;;;2.67;1.33;;;13.70;99.90;;;;;;4993337;28;20471;-71
2021/05/17 11:21:34;;;;;;;4.70;2.00;;;13.60;99.90;;;;;;5063776;28;20478;-72
2021/05/17 11:24:05;;;;;;;5.30;1.90;;;14.00;99.90;;;;;;5074436;28;20452;-72
2021/05/17 11:26:57;;;;;;;2.80;1.60;;;14.50;99.90;;;;;;5074574;28;20852;-71
2021/05/17 11:29:38;;;;;;;4.80;1.53;;;14.30;99.90;;;;;;5075474;28;20460;-73
2021/05/17 11:32:13;;;;;;;4.47;2.07;;;14.70;99.90;;;;;;5073928;28;20507;-72
2021/05/17 11:35:40;;;;;;;4.57;2.47;;;15.00;99.90;;;;;;5076210;28;20720;-73
2021/05/17 11:38:10;;;;;;;6.90;2.57;;;14.60;99.90;;;;;;5075671;28;20510;-72
2021/05/17 11:40:50;;;;;;;3.80;1.90;;;14.60;99.90;;;;;;5076898;28;20480;-71
2021/05/17 11:43:17;;;;;;;4.10;2.10;;;14.40;99.90;;;;;;5090206;28;20452;-71
2021/05/17 11:45:47;;;;;;;4.33;2.67;;;14.10;99.90;;;;;;5088024;28;20587;-72
2021/05/17 11:48:15;;;;;;;3.33;2.40;;;14.00;99.90;;;;;;5083132;28;20494;-72
2021/05/17 11:50:46;;;;;;;4.80;4.20;;;14.00;99.90;;;;;;5097698;28;20481;-73
2021/05/17 11:53:17;;;;;;;5.37;3.40;;;13.90;99.90;;;;;;5081821;28;20468;-73
2021/05/17 11:55:51;;;;;;;7.70;4.63;;;13.90;99.90;;;;;;5076833;28;20499;-73
2021/05/17 11:58:36;;;;;;;6.70;6.00;;;13.50;99.90;;;;;;5075446;28;20465;-73
2021/05/17 12:01:26;;;;;;;6.50;5.00;;;13.40;99.90;;;;;;5076181;28;20460;-74
2021/05/17 12:03:58;;;;;;;12.73;6.00;;;13.10;99.90;;;;;;5074947;28;20441;-73
2021/05/17 12:06:43;;;;;;;9.43;6.67;;;13.50;99.90;;;;;;5076955;28;20510;-71
2021/05/17 12:09:26;;;;;;;6.43;5.73;;;13.50;99.90;;;;;;5081749;28;20638;-72
2021/05/17 12:12:10;;;;;;;7.70;5.70;;;12.80;99.90;;;;;;5076742;28;20464;-72
2021/05/17 12:14:52;;;;;;;4.37;3.97;;;13.20;99.90;;;;;;5081923;28;20449;-73
2021/05/17 12:17:28;;;;;;;5.43;3.80;;;13.40;99.90;;;;;;5092692;28;20468;-73
2021/05/17 12:19:57;;;;;;;4.83;3.13;;;12.80;99.90;;;;;;5078845;28;20456;-72
2021/05/17 12:22:36;;;;;;;4.33;2.60;;;12.90;99.90;;;;;;5088047;28;20458;-73
2021/05/17 12:25:11;;;;;;;4.70;4.10;;;12.80;99.90;;;;;;5096544;28;20719;-72
2021/05/17 12:28:07;;;;;;;4.10;3.13;;;13.20;99.90;;;;;;5095059;28;20489;-72
2021/05/17 12:30:45;;;;;;;4.30;2.90;;;13.20;99.90;;;;;;5077511;28;20527;-73
2021/05/17 12:33:17;;;;;;;5.83;4.10;;;13.20;99.90;;;;;;5074822;28;20560;-73
2021/05/17 12:35:55;;;;;;;6.60;3.87;;;13.10;99.90;;;;;;5073002;28;20488;-72
2021/05/17 12:38:28;;;;;;;9.23;4.87;;;13.00;99.90;;;;;;5073798;28;20927;-72
2021/05/17 12:40:58;;;;;;;5.63;3.77;;;12.90;99.90;;;;;;5074433;28;20461;-73
2021/05/17 12:43:55;;;;;;;4.67;3.60;;;13.00;99.90;;;;;;5074196;28;20483;-73
2021/05/17 12:46:32;;;;;;;5.60;3.77;;;13.20;99.90;;;;;;5074373;28;20456;-72
2021/05/17 12:49:07;;;;;;;4.40;2.80;;;13.40;99.90;;;;;;5075157;28;20849;-74
2021/05/17 12:51:52;;;;;;;5.53;3.17;;;13.40;99.90;;;;;;5074230;28;20552;-72
2021/05/17 12:54:29;;;;;;;4.93;4.00;;;13.70;99.90;;;;;;5055229;28;20541;-72
2021/05/17 12:57:07;;;;;;;7.20;4.07;;;14.10;99.90;;;;;;5073562;28;20519;-72
2021/05/17 12:59:48;;;;;;;4.90;3.33;;;14.80;99.90;;;;;;5075724;28;20691;-72
2021/05/17 13:02:19;;;;;;;4.40;3.10;;;15.30;99.90;;;;;;5093650;28;20448;-73
2021/05/17 13:04:56;;;;;;;4.17;2.30;;;15.70;99.90;;;;;;5086485;28;20471;-73
2021/05/17 13:07:24;;;;;;;4.87;3.33;;;15.30;99.90;;;;;;5078445;28;20449;-72
2021/05/17 13:09:55;;;;;;;3.33;2.70;;;15.70;99.90;;;;;;5096054;28;20460;-72
2021/05/17 13:15:31;;;;;;;3.40;2.50;;;15.60;99.90;;;;;;5076796;28;20480;-72
2021/05/17 13:18:10;;;;;;;2.93;2.40;;;15.60;99.90;;;;;;5093938;28;20801;-71
2021/05/17 13:20:41;;;;;;;4.10;2.43;;;15.70;99.90;;;;;;5093054;28;20471;-71
2021/05/17 13:23:40;;;;;;;5.93;3.67;;;15.60;99.90;;;;;;5096797;28;20504;-73
2021/05/17 13:31:51;;;;;;;4.43;2.63;;;16.40;99.90;;;;;;5078132;28;20863;-73
2021/05/17 13:34:19;;;;;;;3.50;2.20;;;17.00;99.90;;;;;;5080086;28;20479;-73
2021/05/17 13:37:13;;;;;;;6.10;2.30;;;16.60;99.90;;;;;;5079877;28;20504;-71
2021/05/17 13:39:41;;;;;;;3.13;2.23;;;16.70;99.90;;;;;;5079523;28;20536;-73
2021/05/17 13:42:09;;;;;;;3.73;2.10;;;16.30;99.90;;;;;;5085695;28;20443;-73
2021/05/17 13:44:38;;;;;;;4.70;2.37;;;16.10;99.90;;;;;;5087248;28;20445;-72
2021/05/17 13:47:38;;;;;;;;;;;;;;;;;;;;;
2021/05/17 13:50:20;;;;;;;5.23;2.93;;;16.40;99.90;;;;;;5076081;28;20453;-72
2021/05/17 13:52:57;;;;;;;5.73;2.40;;;15.90;99.90;;;;;;5076554;28;20512;-72
2021/05/17 13:55:27;;;;;;;5.30;2.63;;;16.20;99.90;;;;;;5077185;28;20481;-71